sensor_id;sensor_type;location;lat;lon;timestamp;pressure;altitude;pressure_sealevel;temperature;humidity
4981;BME280;2507;50.392;7.482;2022-12-07T00:01:06;100998.97;;;6.87;75.84
4981;BME280;2507;50.392;7.482;2022-12-07T00:03:32;101001.56;;;6.87;74.77
4981;BME280;2507;50.392;7.482;2022-12-07T00:05:58;100999.03;;;6.86;75.38
4981;BME280;2507;50.392;7.482;2022-12-07T00:08:23;100994.53;;;6.89;75.33
4981;BME280;2507;50.392;7.482;2022-12-07T00:10:49;100987.91;;;6.82;74.88
4981;BME280;2507;50.392;7.482;2022-12-07T00:13:14;100983.06;;;6.75;75.58
4981;BME280;2507;50.392;7.482;2022-12-07T00:15:39;100978.34;;;6.83;75.69
4981;BME280;2507;50.392;7.482;2022-12-07T00:18:04;100980.84;;;6.67;75.58
4981;BME280;2507;50.392;7.482;2022-12-07T00:20:30;100981.16;;;6.78;74.62
4981;BME280;2507;50.392;7.482;2022-12-07T00:22:56;100977.81;;;6.93;74.13
4981;BME280;2507;50.392;7.482;2022-12-07T00:25:21;100989.19;;;6.57;76.12
4981;BME280;2507;50.392;7.482;2022-12-07T00:27:46;100977.50;;;6.65;76.07
4981;BME280;2507;50.392;7.482;2022-12-07T00:30:12;100977.34;;;6.85;75.44
4981;BME280;2507;50.392;7.482;2022-12-07T00:32:37;100976.28;;;7.06;74.54
4981;BME280;2507;50.392;7.482;2022-12-07T00:35:03;100976.03;;;6.77;75.84
4981;BME280;2507;50.392;7.482;2022-12-07T00:37:28;100971.88;;;6.73;76.54
4981;BME280;2507;50.392;7.482;2022-12-07T00:39:53;100968.66;;;6.68;77.05
4981;BME280;2507;50.392;7.482;2022-12-07T00:42:19;100973.28;;;6.80;77.38
4981;BME280;2507;50.392;7.482;2022-12-07T00:44:44;100957.41;;;6.84;76.63
4981;BME280;2507;50.392;7.482;2022-12-07T00:47:09;100960.31;;;6.61;78.16
4981;BME280;2507;50.392;7.482;2022-12-07T00:49:35;100966.41;;;6.60;78.00
4981;BME280;2507;50.392;7.482;2022-12-07T00:52:00;100966.75;;;6.71;78.37
4981;BME280;2507;50.392;7.482;2022-12-07T00:54:25;100968.03;;;6.63;78.48
4981;BME280;2507;50.392;7.482;2022-12-07T00:56:51;100961.56;;;6.53;79.42
4981;BME280;2507;50.392;7.482;2022-12-07T00:59:16;100963.19;;;6.55;79.02
4981;BME280;2507;50.392;7.482;2022-12-07T01:01:42;100961.00;;;6.65;79.29
4981;BME280;2507;50.392;7.482;2022-12-07T01:04:08;100966.19;;;6.82;77.92
4981;BME280;2507;50.392;7.482;2022-12-07T01:06:33;100958.59;;;6.60;78.17
4981;BME280;2507;50.392;7.482;2022-12-07T01:09:00;100959.97;;;6.67;79.02
4981;BME280;2507;50.392;7.482;2022-12-07T01:11:28;100953.09;;;6.66;78.69
4981;BME280;2507;50.392;7.482;2022-12-07T01:13:55;100954.00;;;6.82;78.28
4981;BME280;2507;50.392;7.482;2022-12-07T01:16:23;100951.41;;;6.99;77.59
4981;BME280;2507;50.392;7.482;2022-12-07T01:18:52;100949.94;;;7.11;77.26
4981;BME280;2507;50.392;7.482;2022-12-07T01:21:20;100953.09;;;7.00;77.03
4981;BME280;2507;50.392;7.482;2022-12-07T01:23:46;100951.56;;;6.96;77.41
4981;BME280;2507;50.392;7.482;2022-12-07T01:26:14;100954.63;;;7.04;77.63
4981;BME280;2507;50.392;7.482;2022-12-07T01:28:40;100952.63;;;7.09;76.96
4981;BME280;2507;50.392;7.482;2022-12-07T01:31:12;100949.47;;;7.20;77.24
4981;BME280;2507;50.392;7.482;2022-12-07T01:33:40;100949.41;;;7.21;76.55
4981;BME280;2507;50.392;7.482;2022-12-07T01:38:45;100950.56;;;7.16;76.40
4981;BME280;2507;50.392;7.482;2022-12-07T01:41:12;100953.56;;;7.08;77.07
4981;BME280;2507;50.392;7.482;2022-12-07T01:46:31;100948.44;;;7.07;77.45
4981;BME280;2507;50.392;7.482;2022-12-07T01:48:57;100944.97;;;7.06;77.72
4981;BME280;2507;50.392;7.482;2022-12-07T01:51:22;100941.88;;;7.15;77.32
4981;BME280;2507;50.392;7.482;2022-12-07T01:53:48;100947.97;;;7.16;77.23
4981;BME280;2507;50.392;7.482;2022-12-07T01:56:18;100940.72;;;7.21;77.11
4981;BME280;2507;50.392;7.482;2022-12-07T01:58:47;100930.16;;;7.07;77.69
4981;BME280;2507;50.392;7.482;2022-12-07T02:01:13;100932.13;;;7.19;77.44
4981;BME280;2507;50.392;7.482;2022-12-07T02:03:42;100937.13;;;7.23;76.98
4981;BME280;2507;50.392;7.482;2022-12-07T02:06:11;100930.88;;;7.26;76.63
4981;BME280;2507;50.392;7.482;2022-12-07T02:08:37;100933.75;;;7.21;76.89
4981;BME280;2507;50.392;7.482;2022-12-07T02:11:04;100933.13;;;7.16;77.21
4981;BME280;2507;50.392;7.482;2022-12-07T02:13:32;100934.84;;;7.00;77.41
4981;BME280;2507;50.392;7.482;2022-12-07T02:26:51;100928.66;;;7.18;77.84
4981;BME280;2507;50.392;7.482;2022-12-07T02:29:35;100923.94;;;7.09;76.98
4981;BME280;2507;50.392;7.482;2022-12-07T02:34:55;100929.69;;;6.82;79.25
4981;BME280;2507;50.392;7.482;2022-12-07T02:40:01;100917.44;;;7.01;78.12
4981;BME280;2507;50.392;7.482;2022-12-07T02:42:45;100921.09;;;6.97;78.78
4981;BME280;2507;50.392;7.482;2022-12-07T02:45:14;100931.63;;;6.95;78.67
4981;BME280;2507;50.392;7.482;2022-12-07T02:47:41;100915.84;;;6.81;78.79
4981;BME280;2507;50.392;7.482;2022-12-07T02:50:08;100929.16;;;6.58;79.45
4981;BME280;2507;50.392;7.482;2022-12-07T02:52:34;100915.75;;;6.49;80.30
4981;BME280;2507;50.392;7.482;2022-12-07T02:54:59;100918.56;;;6.44;80.41
4981;BME280;2507;50.392;7.482;2022-12-07T03:00:11;100908.59;;;6.69;80.85
4981;BME280;2507;50.392;7.482;2022-12-07T03:02:45;100910.69;;;6.80;80.20
4981;BME280;2507;50.392;7.482;2022-12-07T03:05:25;100914.91;;;6.65;80.36
4981;BME280;2507;50.392;7.482;2022-12-07T03:11:03;100903.41;;;6.86;80.35
4981;BME280;2507;50.392;7.482;2022-12-07T03:19:00;100902.22;;;7.09;78.43
4981;BME280;2507;50.392;7.482;2022-12-07T03:21:34;100893.25;;;7.14;78.54
4981;BME280;2507;50.392;7.482;2022-12-07T03:24:07;100902.91;;;7.12;78.87
4981;BME280;2507;50.392;7.482;2022-12-07T03:26:36;100906.69;;;7.07;78.14
4981;BME280;2507;50.392;7.482;2022-12-07T03:29:13;100912.28;;;6.82;79.21
4981;BME280;2507;50.392;7.482;2022-12-07T03:31:48;100910.91;;;6.92;79.89
4981;BME280;2507;50.392;7.482;2022-12-07T03:36:50;100898.19;;;6.86;79.63
4981;BME280;2507;50.392;7.482;2022-12-07T03:39:34;100899.63;;;6.92;79.62
4981;BME280;2507;50.392;7.482;2022-12-07T03:42:03;100899.63;;;6.75;79.67
4981;BME280;2507;50.392;7.482;2022-12-07T03:44:30;100893.50;;;6.76;79.45
4981;BME280;2507;50.392;7.482;2022-12-07T03:47:01;100894.38;;;6.76;80.39
4981;BME280;2507;50.392;7.482;2022-12-07T03:49:31;100891.91;;;6.90;79.98
4981;BME280;2507;50.392;7.482;2022-12-07T03:54:56;100893.91;;;6.85;79.75
4981;BME280;2507;50.392;7.482;2022-12-07T03:57:25;100891.03;;;6.73;80.30
4981;BME280;2507;50.392;7.482;2022-12-07T03:59:54;100888.38;;;6.57;80.59
4981;BME280;2507;50.392;7.482;2022-12-07T04:02:20;100888.16;;;6.62;80.41
4981;BME280;2507;50.392;7.482;2022-12-07T04:04:45;100878.84;;;6.73;80.88
4981;BME280;2507;50.392;7.482;2022-12-07T04:07:11;100882.84;;;6.80;79.87
4981;BME280;2507;50.392;7.482;2022-12-07T04:09:36;100880.75;;;6.53;80.88
4981;BME280;2507;50.392;7.482;2022-12-07T04:12:01;100884.38;;;6.50;80.99
4981;BME280;2507;50.392;7.482;2022-12-07T04:14:27;100889.06;;;6.61;80.88
4981;BME280;2507;50.392;7.482;2022-12-07T04:16:57;100891.88;;;6.73;80.38
4981;BME280;2507;50.392;7.482;2022-12-07T04:19:31;100882.91;;;6.96;79.58
4981;BME280;2507;50.392;7.482;2022-12-07T04:21:58;100890.72;;;6.96;78.74
4981;BME280;2507;50.392;7.482;2022-12-07T04:24:24;100886.50;;;6.93;78.09
4981;BME280;2507;50.392;7.482;2022-12-07T04:26:50;100884.19;;;7.04;77.19
4981;BME280;2507;50.392;7.482;2022-12-07T04:29:16;100880.66;;;7.05;76.81
4981;BME280;2507;50.392;7.482;2022-12-07T04:31:42;100873.53;;;7.09;76.33
4981;BME280;2507;50.392;7.482;2022-12-07T04:34:08;100880.97;;;6.99;77.17
4981;BME280;2507;50.392;7.482;2022-12-07T04:36:34;100880.03;;;7.17;76.62
4981;BME280;2507;50.392;7.482;2022-12-07T04:39:00;100884.09;;;7.39;75.83
4981;BME280;2507;50.392;7.482;2022-12-07T04:41:26;100884.50;;;7.31;74.90
4981;BME280;2507;50.392;7.482;2022-12-07T04:43:55;100881.69;;;7.18;75.48
4981;BME280;2507;50.392;7.482;2022-12-07T04:46:22;100879.63;;;7.25;75.14
4981;BME280;2507;50.392;7.482;2022-12-07T04:48:48;100881.63;;;7.20;74.99
4981;BME280;2507;50.392;7.482;2022-12-07T04:51:18;100881.47;;;7.23;74.53
4981;BME280;2507;50.392;7.482;2022-12-07T04:53:44;100878.50;;;7.13;74.29
4981;BME280;2507;50.392;7.482;2022-12-07T04:56:09;100883.25;;;7.05;74.93
4981;BME280;2507;50.392;7.482;2022-12-07T04:58:35;100882.53;;;7.03;75.73
4981;BME280;2507;50.392;7.482;2022-12-07T05:01:00;100875.91;;;6.96;76.61
4981;BME280;2507;50.392;7.482;2022-12-07T05:03:25;100886.63;;;7.07;76.09
4981;BME280;2507;50.392;7.482;2022-12-07T05:05:50;100880.41;;;7.10;75.61
4981;BME280;2507;50.392;7.482;2022-12-07T05:08:16;100882.44;;;7.05;75.66
4981;BME280;2507;50.392;7.482;2022-12-07T05:10:41;100881.59;;;7.04;75.95
4981;BME280;2507;50.392;7.482;2022-12-07T05:13:06;100872.75;;;7.07;75.61
4981;BME280;2507;50.392;7.482;2022-12-07T05:15:31;100888.94;;;6.96;76.11
4981;BME280;2507;50.392;7.482;2022-12-07T05:17:57;100885.44;;;6.97;77.03
4981;BME280;2507;50.392;7.482;2022-12-07T05:20:22;100883.72;;;6.96;76.88
4981;BME280;2507;50.392;7.482;2022-12-07T05:22:47;100888.34;;;6.91;77.09
4981;BME280;2507;50.392;7.482;2022-12-07T05:25:13;100892.19;;;7.01;77.35
4981;BME280;2507;50.392;7.482;2022-12-07T05:27:38;100896.56;;;7.01;76.96
4981;BME280;2507;50.392;7.482;2022-12-07T05:30:06;100890.25;;;7.05;77.26
4981;BME280;2507;50.392;7.482;2022-12-07T05:32:31;100889.97;;;6.94;77.52
4981;BME280;2507;50.392;7.482;2022-12-07T05:34:57;100896.03;;;6.94;77.57
4981;BME280;2507;50.392;7.482;2022-12-07T05:37:22;100893.25;;;6.97;77.21
4981;BME280;2507;50.392;7.482;2022-12-07T05:39:47;100891.34;;;6.84;78.21
4981;BME280;2507;50.392;7.482;2022-12-07T05:42:12;100898.09;;;6.88;77.89
4981;BME280;2507;50.392;7.482;2022-12-07T05:44:43;100888.50;;;6.88;78.43
4981;BME280;2507;50.392;7.482;2022-12-07T05:47:09;100886.59;;;6.92;78.16
4981;BME280;2507;50.392;7.482;2022-12-07T05:49:35;100877.44;;;7.00;78.56
4981;BME280;2507;50.392;7.482;2022-12-07T05:52:00;100891.72;;;7.10;77.14
4981;BME280;2507;50.392;7.482;2022-12-07T05:54:26;100880.34;;;7.11;77.76
4981;BME280;2507;50.392;7.482;2022-12-07T05:56:51;100885.72;;;7.08;77.98
4981;BME280;2507;50.392;7.482;2022-12-07T05:59:16;100885.81;;;7.07;78.29
4981;BME280;2507;50.392;7.482;2022-12-07T06:02:02;100884.66;;;7.12;77.72
4981;BME280;2507;50.392;7.482;2022-12-07T06:04:30;100891.94;;;7.06;77.52
4981;BME280;2507;50.392;7.482;2022-12-07T06:06:56;100883.91;;;6.93;79.09
4981;BME280;2507;50.392;7.482;2022-12-07T06:09:24;100883.13;;;6.91;79.44
4981;BME280;2507;50.392;7.482;2022-12-07T06:11:50;100887.44;;;6.92;79.66
4981;BME280;2507;50.392;7.482;2022-12-07T06:14:34;100884.16;;;6.89;79.69
4981;BME280;2507;50.392;7.482;2022-12-07T06:16:59;100880.91;;;7.01;78.73
4981;BME280;2507;50.392;7.482;2022-12-07T06:19:25;100888.03;;;6.97;79.18
4981;BME280;2507;50.392;7.482;2022-12-07T06:21:50;100890.34;;;7.03;78.61
4981;BME280;2507;50.392;7.482;2022-12-07T06:24:16;100883.44;;;7.02;78.64
4981;BME280;2507;50.392;7.482;2022-12-07T06:26:42;100893.78;;;7.04;79.15
4981;BME280;2507;50.392;7.482;2022-12-07T06:29:08;100889.25;;;7.07;78.18
4981;BME280;2507;50.392;7.482;2022-12-07T06:31:35;100896.25;;;7.07;79.00
4981;BME280;2507;50.392;7.482;2022-12-07T06:34:02;100889.03;;;7.28;77.59
4981;BME280;2507;50.392;7.482;2022-12-07T06:36:28;100889.38;;;7.21;77.66
4981;BME280;2507;50.392;7.482;2022-12-07T06:38:53;100884.09;;;7.06;78.23
4981;BME280;2507;50.392;7.482;2022-12-07T06:41:18;100887.47;;;7.08;78.92
4981;BME280;2507;50.392;7.482;2022-12-07T06:43:43;100885.41;;;7.14;77.82
4981;BME280;2507;50.392;7.482;2022-12-07T06:46:09;100890.28;;;7.20;77.46
4981;BME280;2507;50.392;7.482;2022-12-07T06:48:34;100892.22;;;7.17;77.95
4981;BME280;2507;50.392;7.482;2022-12-07T06:50:59;100892.63;;;7.09;77.47
4981;BME280;2507;50.392;7.482;2022-12-07T06:53:25;100900.31;;;7.12;78.04
4981;BME280;2507;50.392;7.482;2022-12-07T06:55:50;100906.44;;;7.11;78.11
4981;BME280;2507;50.392;7.482;2022-12-07T06:58:16;100897.81;;;7.27;76.60
4981;BME280;2507;50.392;7.482;2022-12-07T07:00:42;100908.25;;;7.27;76.71
4981;BME280;2507;50.392;7.482;2022-12-07T07:03:08;100890.28;;;7.20;76.58
4981;BME280;2507;50.392;7.482;2022-12-07T07:05:33;100899.06;;;7.19;76.53
4981;BME280;2507;50.392;7.482;2022-12-07T07:07:58;100910.28;;;7.04;77.27
4981;BME280;2507;50.392;7.482;2022-12-07T07:10:24;100898.19;;;7.03;77.63
4981;BME280;2507;50.392;7.482;2022-12-07T07:12:49;100907.50;;;7.07;75.75
4981;BME280;2507;50.392;7.482;2022-12-07T07:15:14;100913.06;;;7.01;77.09
4981;BME280;2507;50.392;7.482;2022-12-07T07:17:40;100916.88;;;7.11;76.57
4981;BME280;2507;50.392;7.482;2022-12-07T07:20:05;100922.25;;;7.08;76.64
4981;BME280;2507;50.392;7.482;2022-12-07T07:22:31;100923.56;;;7.00;76.97
4981;BME280;2507;50.392;7.482;2022-12-07T07:24:56;100916.66;;;6.82;77.41
4981;BME280;2507;50.392;7.482;2022-12-07T07:27:21;100925.03;;;6.88;77.46
4981;BME280;2507;50.392;7.482;2022-12-07T07:29:47;100922.13;;;6.94;77.33
4981;BME280;2507;50.392;7.482;2022-12-07T07:32:12;100926.03;;;7.03;77.34
4981;BME280;2507;50.392;7.482;2022-12-07T07:34:37;100924.00;;;7.08;77.72
4981;BME280;2507;50.392;7.482;2022-12-07T07:37:03;100927.47;;;7.08;77.47
4981;BME280;2507;50.392;7.482;2022-12-07T07:39:28;100928.88;;;7.31;77.33
4981;BME280;2507;50.392;7.482;2022-12-07T07:41:53;100933.22;;;7.48;77.08
4981;BME280;2507;50.392;7.482;2022-12-07T07:44:18;100931.47;;;7.48;76.48
4981;BME280;2507;50.392;7.482;2022-12-07T07:46:44;100935.50;;;7.54;76.88
4981;BME280;2507;50.392;7.482;2022-12-07T07:49:10;100935.69;;;7.51;77.25
4981;BME280;2507;50.392;7.482;2022-12-07T07:51:35;100928.66;;;7.51;77.33
4981;BME280;2507;50.392;7.482;2022-12-07T07:56:28;100925.09;;;7.37;75.73
4981;BME280;2507;50.392;7.482;2022-12-07T07:58:54;100932.72;;;7.24;76.56
4981;BME280;2507;50.392;7.482;2022-12-07T08:01:19;100935.97;;;7.12;76.56
4981;BME280;2507;50.392;7.482;2022-12-07T08:03:46;100935.00;;;6.97;77.04
4981;BME280;2507;50.392;7.482;2022-12-07T08:06:11;100939.38;;;6.97;77.15
4981;BME280;2507;50.392;7.482;2022-12-07T08:08:37;100940.34;;;7.11;77.68
4981;BME280;2507;50.392;7.482;2022-12-07T08:11:05;100943.91;;;7.10;77.62
4981;BME280;2507;50.392;7.482;2022-12-07T08:13:30;100937.75;;;7.44;76.36
4981;BME280;2507;50.392;7.482;2022-12-07T08:15:56;100932.44;;;7.46;75.78
4981;BME280;2507;50.392;7.482;2022-12-07T08:18:21;100939.94;;;7.36;76.95
4981;BME280;2507;50.392;7.482;2022-12-07T08:20:46;100939.69;;;7.41;77.16
4981;BME280;2507;50.392;7.482;2022-12-07T08:23:12;100931.63;;;7.45;77.61
4981;BME280;2507;50.392;7.482;2022-12-07T08:25:38;100935.09;;;7.61;77.52
4981;BME280;2507;50.392;7.482;2022-12-07T08:28:03;100936.38;;;7.70;77.56
4981;BME280;2507;50.392;7.482;2022-12-07T08:30:29;100933.53;;;7.90;77.48
4981;BME280;2507;50.392;7.482;2022-12-07T08:32:55;100933.78;;;8.01;76.46
4981;BME280;2507;50.392;7.482;2022-12-07T08:35:21;100939.84;;;8.17;76.53
4981;BME280;2507;50.392;7.482;2022-12-07T08:37:46;100944.50;;;8.27;75.41
4981;BME280;2507;50.392;7.482;2022-12-07T08:40:12;100938.88;;;8.35;75.52
4981;BME280;2507;50.392;7.482;2022-12-07T08:42:42;100941.22;;;8.40;74.99
4981;BME280;2507;50.392;7.482;2022-12-07T08:45:11;100949.09;;;8.69;74.82
4981;BME280;2507;50.392;7.482;2022-12-07T08:47:42;100957.34;;;8.77;74.17
4981;BME280;2507;50.392;7.482;2022-12-07T08:50:09;100937.56;;;8.87;73.52
4981;BME280;2507;50.392;7.482;2022-12-07T08:52:36;100946.78;;;8.79;73.11
4981;BME280;2507;50.392;7.482;2022-12-07T08:55:03;100933.56;;;8.66;72.71
4981;BME280;2507;50.392;7.482;2022-12-07T08:57:29;100953.03;;;8.47;72.62
4981;BME280;2507;50.392;7.482;2022-12-07T08:59:55;100933.53;;;8.52;72.05
4981;BME280;2507;50.392;7.482;2022-12-07T09:02:21;100937.56;;;8.58;71.37
4981;BME280;2507;50.392;7.482;2022-12-07T09:04:46;100929.66;;;8.73;71.31
4981;BME280;2507;50.392;7.482;2022-12-07T09:07:12;100935.56;;;8.77;71.48
4981;BME280;2507;50.392;7.482;2022-12-07T09:09:37;100930.88;;;8.97;70.40
4981;BME280;2507;50.392;7.482;2022-12-07T09:12:02;100931.06;;;9.08;69.74
4981;BME280;2507;50.392;7.482;2022-12-07T09:14:28;100932.41;;;9.15;69.72
4981;BME280;2507;50.392;7.482;2022-12-07T09:16:53;100928.94;;;9.29;68.49
4981;BME280;2507;50.392;7.482;2022-12-07T09:19:19;100940.25;;;9.15;68.18
4981;BME280;2507;50.392;7.482;2022-12-07T09:21:44;100935.75;;;9.17;68.24
4981;BME280;2507;50.392;7.482;2022-12-07T09:24:11;100945.88;;;9.23;67.54
4981;BME280;2507;50.392;7.482;2022-12-07T09:26:37;100940.06;;;9.18;67.60
4981;BME280;2507;50.392;7.482;2022-12-07T09:29:04;100951.38;;;9.33;65.41
4981;BME280;2507;50.392;7.482;2022-12-07T09:31:29;100948.53;;;9.08;67.13
4981;BME280;2507;50.392;7.482;2022-12-07T09:33:59;100940.69;;;9.08;67.60
4981;BME280;2507;50.392;7.482;2022-12-07T09:36:25;100935.16;;;8.98;68.35
4981;BME280;2507;50.392;7.482;2022-12-07T09:38:51;100941.31;;;8.83;68.18
4981;BME280;2507;50.392;7.482;2022-12-07T09:41:16;100945.72;;;8.97;67.71
4981;BME280;2507;50.392;7.482;2022-12-07T09:43:42;100952.97;;;9.21;66.54
4981;BME280;2507;50.392;7.482;2022-12-07T09:46:10;100950.63;;;9.17;66.71
4981;BME280;2507;50.392;7.482;2022-12-07T09:48:38;100948.13;;;8.86;67.49
4981;BME280;2507;50.392;7.482;2022-12-07T09:51:19;100948.94;;;8.72;67.96
4981;BME280;2507;50.392;7.482;2022-12-07T09:53:45;100947.47;;;8.53;68.93
4981;BME280;2507;50.392;7.482;2022-12-07T09:56:13;100947.03;;;8.45;68.80
4981;BME280;2507;50.392;7.482;2022-12-07T09:58:39;100943.91;;;8.54;69.21
4981;BME280;2507;50.392;7.482;2022-12-07T10:01:12;100938.56;;;8.55;69.14
4981;BME280;2507;50.392;7.482;2022-12-07T10:03:40;100943.47;;;8.61;69.61
4981;BME280;2507;50.392;7.482;2022-12-07T10:06:07;100928.56;;;8.77;69.84
4981;BME280;2507;50.392;7.482;2022-12-07T10:08:33;100924.13;;;8.93;69.29
4981;BME280;2507;50.392;7.482;2022-12-07T10:11:01;100914.06;;;9.15;68.98
4981;BME280;2507;50.392;7.482;2022-12-07T10:13:39;100921.16;;;9.27;68.07
4981;BME280;2507;50.392;7.482;2022-12-07T10:16:05;100922.31;;;9.23;68.36
4981;BME280;2507;50.392;7.482;2022-12-07T10:18:32;100908.84;;;9.29;68.74
4981;BME280;2507;50.392;7.482;2022-12-07T10:23:28;100913.72;;;9.36;67.13
4981;BME280;2507;50.392;7.482;2022-12-07T10:25:53;100902.97;;;9.54;67.11
4981;BME280;2507;50.392;7.482;2022-12-07T10:28:20;100905.97;;;10.03;66.90
4981;BME280;2507;50.392;7.482;2022-12-07T10:31:16;100907.28;;;10.10;65.32
4981;BME280;2507;50.392;7.482;2022-12-07T10:33:53;100904.38;;;10.14;65.50
4981;BME280;2507;50.392;7.482;2022-12-07T10:36:35;100898.88;;;10.71;62.91
4981;BME280;2507;50.392;7.482;2022-12-07T10:39:11;100886.56;;;10.59;63.39
4981;BME280;2507;50.392;7.482;2022-12-07T10:41:55;100885.44;;;10.75;62.58
4981;BME280;2507;50.392;7.482;2022-12-07T10:44:23;100879.31;;;10.62;62.37
4981;BME280;2507;50.392;7.482;2022-12-07T10:46:57;100877.56;;;10.75;63.21
4981;BME280;2507;50.392;7.482;2022-12-07T11:00:17;100867.16;;;9.81;63.28
4981;BME280;2507;50.392;7.482;2022-12-07T11:08:41;100858.03;;;10.27;62.17
4981;BME280;2507;50.392;7.482;2022-12-07T11:11:16;100858.72;;;9.90;63.92
4981;BME280;2507;50.392;7.482;2022-12-07T11:13:56;100847.13;;;9.80;63.34
4981;BME280;2507;50.392;7.482;2022-12-07T11:16:40;100846.41;;;9.64;63.74
4981;BME280;2507;50.392;7.482;2022-12-07T11:21:57;100848.28;;;10.03;61.45
4981;BME280;2507;50.392;7.482;2022-12-07T11:25:30;100839.28;;;10.07;61.98
4981;BME280;2507;50.392;7.482;2022-12-07T11:33:46;100835.97;;;9.91;61.26
4981;BME280;2507;50.392;7.482;2022-12-07T11:36:36;100843.25;;;9.59;64.20
4981;BME280;2507;50.392;7.482;2022-12-07T11:39:11;100843.75;;;9.09;66.65
4981;BME280;2507;50.392;7.482;2022-12-07T11:41:42;100819.34;;;8.67;67.42
4981;BME280;2507;50.392;7.482;2022-12-07T11:44:26;100822.38;;;8.45;68.07
4981;BME280;2507;50.392;7.482;2022-12-07T11:47:02;100817.31;;;8.42;66.86
4981;BME280;2507;50.392;7.482;2022-12-07T11:49:44;100827.06;;;8.24;67.25
4981;BME280;2507;50.392;7.482;2022-12-07T11:52:23;100861.78;;;8.11;66.99
4981;BME280;2507;50.392;7.482;2022-12-07T11:54:53;100820.00;;;7.95;67.47
4981;BME280;2507;50.392;7.482;2022-12-07T11:57:36;100820.56;;;7.71;68.56
4981;BME280;2507;50.392;7.482;2022-12-07T12:00:08;100817.19;;;7.69;69.17
4981;BME280;2507;50.392;7.482;2022-12-07T12:02:43;100803.75;;;7.75;69.19
4981;BME280;2507;50.392;7.482;2022-12-07T12:05:20;100801.97;;;7.91;69.11
4981;BME280;2507;50.392;7.482;2022-12-07T12:07:52;100807.31;;;8.19;69.38
4981;BME280;2507;50.392;7.482;2022-12-07T12:13:32;100793.94;;;8.83;66.94
4981;BME280;2507;50.392;7.482;2022-12-07T12:16:22;100805.59;;;9.05;65.58
4981;BME280;2507;50.392;7.482;2022-12-07T12:19:06;100794.31;;;9.05;64.89
4981;BME280;2507;50.392;7.482;2022-12-07T12:21:37;100817.66;;;9.08;65.58
4981;BME280;2507;50.392;7.482;2022-12-07T12:24:10;100814.69;;;9.14;65.36
4981;BME280;2507;50.392;7.482;2022-12-07T12:26:38;100815.25;;;8.91;66.85
4981;BME280;2507;50.392;7.482;2022-12-07T12:29:27;100806.38;;;8.36;70.68
4981;BME280;2507;50.392;7.482;2022-12-07T12:32:11;100795.31;;;8.01;72.47
4981;BME280;2507;50.392;7.482;2022-12-07T12:34:40;100784.13;;;7.68;71.85
4981;BME280;2507;50.392;7.482;2022-12-07T12:37:38;100793.75;;;7.52;72.51
4981;BME280;2507;50.392;7.482;2022-12-07T12:42:47;100779.16;;;7.79;72.98
4981;BME280;2507;50.392;7.482;2022-12-07T12:45:25;100786.03;;;7.95;72.29
4981;BME280;2507;50.392;7.482;2022-12-07T12:50:24;100785.19;;;7.95;71.24
4981;BME280;2507;50.392;7.482;2022-12-07T12:56:11;100801.47;;;8.00;70.72
4981;BME280;2507;50.392;7.482;2022-12-07T12:58:35;100787.22;;;7.90;70.29
4981;BME280;2507;50.392;7.482;2022-12-07T13:01:33;100782.19;;;7.71;71.48
4981;BME280;2507;50.392;7.482;2022-12-07T13:04:02;100780.69;;;7.67;72.00
4981;BME280;2507;50.392;7.482;2022-12-07T13:06:35;100784.66;;;7.59;72.27
4981;BME280;2507;50.392;7.482;2022-12-07T13:09:01;100825.41;;;7.46;73.48
4981;BME280;2507;50.392;7.482;2022-12-07T13:11:34;100792.34;;;7.31;73.89
4981;BME280;2507;50.392;7.482;2022-12-07T13:17:08;100777.06;;;7.70;74.10
4981;BME280;2507;50.392;7.482;2022-12-07T13:25:02;100767.84;;;7.94;73.50
4981;BME280;2507;50.392;7.482;2022-12-07T13:27:30;100757.78;;;8.02;72.97
4981;BME280;2507;50.392;7.482;2022-12-07T13:29:56;100763.66;;;8.05;73.15
4981;BME280;2507;50.392;7.482;2022-12-07T13:32:31;100763.66;;;8.05;72.89
4981;BME280;2507;50.392;7.482;2022-12-07T13:34:57;100767.69;;;8.11;73.81
4981;BME280;2507;50.392;7.482;2022-12-07T13:37:30;100766.50;;;8.16;73.26
4981;BME280;2507;50.392;7.482;2022-12-07T13:39:59;100782.19;;;8.16;73.55
4981;BME280;2507;50.392;7.482;2022-12-07T13:42:32;100768.91;;;8.05;73.83
4981;BME280;2507;50.392;7.482;2022-12-07T13:45:00;100765.31;;;8.22;73.75
4981;BME280;2507;50.392;7.482;2022-12-07T13:47:37;100773.97;;;8.08;72.79
4981;BME280;2507;50.392;7.482;2022-12-07T13:50:26;100749.16;;;8.15;73.46
4981;BME280;2507;50.392;7.482;2022-12-07T13:52:55;100746.16;;;8.37;72.56
4981;BME280;2507;50.392;7.482;2022-12-07T13:55:21;100759.03;;;8.40;72.68
4981;BME280;2507;50.392;7.482;2022-12-07T13:57:50;100753.00;;;8.54;72.52
4981;BME280;2507;50.392;7.482;2022-12-07T14:00:18;100757.66;;;8.49;72.17
4981;BME280;2507;50.392;7.482;2022-12-07T14:07:55;100738.47;;;8.04;71.51
4981;BME280;2507;50.392;7.482;2022-12-07T14:12:52;100744.44;;;7.92;70.37
4981;BME280;2507;50.392;7.482;2022-12-07T14:15:28;100749.09;;;7.72;70.77
4981;BME280;2507;50.392;7.482;2022-12-07T14:17:55;100737.56;;;7.60;71.04
4981;BME280;2507;50.392;7.482;2022-12-07T14:22:55;100737.50;;;7.62;70.19
4981;BME280;2507;50.392;7.482;2022-12-07T14:25:23;100743.25;;;7.37;71.09
4981;BME280;2507;50.392;7.482;2022-12-07T14:27:51;100742.06;;;7.27;71.35
4981;BME280;2507;50.392;7.482;2022-12-07T14:30:18;100746.44;;;7.27;72.03
4981;BME280;2507;50.392;7.482;2022-12-07T14:32:44;100746.94;;;7.49;70.41
4981;BME280;2507;50.392;7.482;2022-12-07T14:35:15;100736.91;;;7.57;70.34
4981;BME280;2507;50.392;7.482;2022-12-07T14:37:42;100744.91;;;7.54;71.25
4981;BME280;2507;50.392;7.482;2022-12-07T14:40:22;100734.28;;;7.72;70.21
4981;BME280;2507;50.392;7.482;2022-12-07T14:42:51;100737.41;;;7.93;69.69
4981;BME280;2507;50.392;7.482;2022-12-07T14:45:19;100739.81;;;8.11;68.64
4981;BME280;2507;50.392;7.482;2022-12-07T14:47:46;100734.72;;;8.24;68.47
4981;BME280;2507;50.392;7.482;2022-12-07T14:50:13;100738.09;;;8.26;67.32
4981;BME280;2507;50.392;7.482;2022-12-07T14:52:39;100734.78;;;8.38;66.52
4981;BME280;2507;50.392;7.482;2022-12-07T14:55:13;100726.47;;;8.16;66.86
4981;BME280;2507;50.392;7.482;2022-12-07T14:57:39;100726.63;;;7.99;67.08
4981;BME280;2507;50.392;7.482;2022-12-07T15:00:05;100731.44;;;7.91;67.39
4981;BME280;2507;50.392;7.482;2022-12-07T15:02:30;100734.13;;;7.89;67.23
4981;BME280;2507;50.392;7.482;2022-12-07T15:04:55;100725.41;;;7.75;67.75
4981;BME280;2507;50.392;7.482;2022-12-07T15:07:21;100720.47;;;7.70;67.45
4981;BME280;2507;50.392;7.482;2022-12-07T15:09:47;100724.44;;;7.62;67.60